Accueil
METAR-TAF:

METAR-TAF

Aéroports :

Londres Biggin Hill, Angleterre

Aérodrome de Londres Biggin Hill

latitude: 51-19N, longitude: 000-02E, altitude: 183 m

Observation

Le bulletin a été fait il y a 34 minutes, à 10:20 UTC
Vent 19 kt de sud/sud-ouest avec des rafales jusqu'à 33 kt, variant entre sud et sud-ouest
Température 13°C
Humidité 77%
Pression 1001 hPa
Visibilité 10 km ou plus
Nuages épars à une hauteur de 2000 ft

METAR: EGKB 221020Z 21019G33KT 170V230 9999 SCT020 13/09 Q1001

Heure: 10:54 (10:54 UTC)

Prévision

Le bulletin a été fait il y a 2 heures et 55 minutes, à 07:59 UTC
Prévision valable du 22 à 09 UTC au 22 à 18 UTC
Vent 20 kt de sud/sud-ouest avec des rafales jusqu'à 30 kt
Visibilité 10 km ou plus
Nuages épars à une hauteur de 1000 ft

TAF: EGKB 220759Z 2209/2218 21020G30KT 9999 SCT010

Observations et prévisions météorologiques de plus de 4000 aéroports (messages METAR et TAF).

Les stations disponibles sont représentées par des disques jaunes et rouges sur la carte.

Passer la souris dessus pour voir le nom de la station.

Cliquer dessus pour voir les observations et prévisions météorologiques.

Pour changer de carte: cliquez sur les boutons verts avec une croix noire pour zoomer, sur le bouton vert avec un tiret pour effectuer un zoom arrière, ou sur les flèches vertes pour les cartes adjacentes.


METAR-TAF: